createdAt,value
2018-05-15T00:01:04.183Z,101440.05
2018-05-15T00:03:31.751Z,101442.97
2018-05-15T00:05:59.339Z,101443.33
2018-05-15T00:08:26.899Z,101444.91
2018-05-15T00:10:54.913Z,101453.12
2018-05-15T00:13:22.474Z,101458.31
2018-05-15T00:15:50.274Z,101458.49
2018-05-15T00:18:17.872Z,101457.30
2018-05-15T00:20:45.662Z,101461.88
2018-05-15T00:23:13.595Z,101461.99
2018-05-15T00:25:41.165Z,101458.89
2018-05-15T00:28:08.828Z,101463.54
2018-05-15T00:30:36.434Z,101467.22
2018-05-15T00:33:04.199Z,101466.27
2018-05-15T00:35:32.004Z,101463.03
2018-05-15T00:37:59.580Z,101467.44
2018-05-15T00:40:27.209Z,101461.93
2018-05-15T00:42:54.881Z,101466.07
2018-05-15T00:45:22.586Z,101470.96
2018-05-15T00:47:50.148Z,101463.53
2018-05-15T00:50:18.281Z,101463.20
2018-05-15T00:52:45.844Z,101467.47
2018-05-15T00:55:25.212Z,101468.34
2018-05-15T00:57:53.116Z,101468.42
2018-05-15T01:00:20.744Z,101475.09
2018-05-15T01:02:48.614Z,101471.87
2018-05-15T01:05:16.173Z,101466.83
2018-05-15T01:07:43.815Z,101471.12
2018-05-15T01:10:11.476Z,101471.50
2018-05-15T01:12:39.043Z,101468.11
2018-05-15T01:15:06.652Z,101475.08
2018-05-15T01:17:34.274Z,101468.01
2018-05-15T01:20:01.901Z,101476.89
2018-05-15T01:22:29.484Z,101467.36
2018-05-15T01:24:57.131Z,101469.56
2018-05-15T01:27:24.767Z,101465.89
2018-05-15T01:29:52.706Z,101467.03
2018-05-15T01:32:20.291Z,101471.41
2018-05-15T01:34:48.056Z,101468.16
2018-05-15T01:37:15.614Z,101475.73
2018-05-15T01:39:43.213Z,101481.14
2018-05-15T01:42:10.810Z,101477.13
2018-05-15T01:44:38.472Z,101480.87
2018-05-15T01:47:06.040Z,101479.31
2018-05-15T01:49:33.754Z,101483.29
2018-05-15T01:52:01.326Z,101477.91
2018-05-15T01:54:28.893Z,101476.70
2018-05-15T01:56:56.495Z,101479.07
2018-05-15T01:59:24.205Z,101480.64
2018-05-15T02:01:51.776Z,101478.09
2018-05-15T02:04:19.351Z,101480.86
2018-05-15T02:06:46.949Z,101481.37
2018-05-15T02:09:14.936Z,101478.31
2018-05-15T02:11:43.295Z,101480.98
2018-05-15T02:14:11.287Z,101483.41
2018-05-15T02:16:39.337Z,101485.50
2018-05-15T02:19:07.331Z,101484.64
2018-05-15T02:21:35.337Z,101486.37
2018-05-15T02:24:02.974Z,101489.90
2018-05-15T02:26:30.538Z,101483.75
2018-05-15T02:28:58.109Z,101487.33
2018-05-15T02:31:25.722Z,101493.94
2018-05-15T02:33:53.388Z,101490.58
2018-05-15T02:36:21.000Z,101492.20
2018-05-15T02:38:48.807Z,101495.38
2018-05-15T02:41:16.421Z,101499.16
2018-05-15T02:43:44.220Z,101494.41
2018-05-15T02:46:11.809Z,101497.41
2018-05-15T02:48:39.375Z,101495.17
2018-05-15T02:51:06.982Z,101493.52
2018-05-15T02:53:34.839Z,101500.38
2018-05-15T02:56:02.421Z,101498.44
2018-05-15T02:58:30.099Z,101496.63
2018-05-15T03:00:57.798Z,101502.12
2018-05-15T03:03:25.377Z,101498.23
2018-05-15T03:05:52.955Z,101492.77
2018-05-15T03:08:20.556Z,101498.17
2018-05-15T03:10:48.270Z,101500.04
2018-05-15T03:13:15.939Z,101501.91
2018-05-15T03:15:43.537Z,101497.58
2018-05-15T03:18:11.287Z,101504.41
2018-05-15T03:20:38.859Z,101505.23
2018-05-15T03:23:06.426Z,101498.48
2018-05-15T03:25:34.375Z,101507.33
2018-05-15T03:28:01.951Z,101506.45
2018-05-15T03:30:29.507Z,101516.41
2018-05-15T03:32:57.122Z,101511.77
2018-05-15T03:35:24.772Z,101514.42
2018-05-15T03:37:52.540Z,101511.77
2018-05-15T03:40:20.171Z,101513.69
2018-05-15T03:42:47.972Z,101520.85
2018-05-15T03:45:15.601Z,101518.94
2018-05-15T03:47:43.181Z,101524.41
2018-05-15T03:50:10.832Z,101525.53
2018-05-15T03:52:38.902Z,101521.27
2018-05-15T03:55:06.457Z,101520.56
2018-05-15T03:57:34.060Z,101518.73
2018-05-15T04:00:01.878Z,101516.55
2018-05-15T04:02:41.097Z,101516.48
2018-05-15T04:05:20.409Z,101513.18
2018-05-15T04:08:14.708Z,101514.63
2018-05-15T04:10:42.401Z,101514.87
2018-05-15T04:13:09.986Z,101512.80
2018-05-15T04:15:37.548Z,101514.16
2018-05-15T04:18:05.602Z,101517.31
2018-05-15T04:20:33.404Z,101516.90
2018-05-15T04:23:00.962Z,101518.09
2018-05-15T04:25:28.576Z,101521.48
2018-05-15T04:27:56.140Z,101521.79
2018-05-15T04:30:23.812Z,101517.69
2018-05-15T04:32:51.381Z,101524.93
2018-05-15T04:35:19.342Z,101522.03
2018-05-15T04:37:47.153Z,101519.55
2018-05-15T04:40:14.712Z,101515.53
2018-05-15T04:42:42.302Z,101518.89
2018-05-15T04:45:10.671Z,101524.77
2018-05-15T04:47:38.238Z,101518.19
2018-05-15T04:50:05.828Z,101524.11
2018-05-15T04:52:33.456Z,101524.69
2018-05-15T04:55:01.020Z,101527.09
2018-05-15T04:57:28.591Z,101531.61
2018-05-15T04:59:56.219Z,101533.11
2018-05-15T05:02:23.859Z,101529.09
2018-05-15T05:04:51.788Z,101538.66
2018-05-15T05:07:19.362Z,101537.55
2018-05-15T05:09:46.919Z,101536.09
2018-05-15T05:12:14.524Z,101541.06
2018-05-15T05:14:42.339Z,101542.52
2018-05-15T05:17:09.902Z,101552.30
2018-05-15T05:19:38.140Z,101558.02
2018-05-15T05:22:05.732Z,101554.38
2018-05-15T05:24:33.362Z,101563.07
2018-05-15T05:27:01.513Z,101561.53
2018-05-15T05:29:29.145Z,101560.24
2018-05-15T05:31:56.797Z,101565.55
2018-05-15T05:34:24.394Z,101559.89
2018-05-15T05:36:52.257Z,101558.57
2018-05-15T05:39:19.850Z,101569.02
2018-05-15T05:41:47.433Z,101565.93
2018-05-15T05:44:15.077Z,101567.91
2018-05-15T05:46:42.715Z,101565.30
2018-05-15T05:49:10.287Z,101564.70
2018-05-15T05:51:37.952Z,101575.52
2018-05-15T05:54:05.615Z,101572.34
2018-05-15T05:56:33.276Z,101572.37
2018-05-15T05:59:00.871Z,101568.47
2018-05-15T06:01:28.444Z,101574.03
2018-05-15T06:03:56.041Z,101573.79
2018-05-15T06:06:23.840Z,101570.31
2018-05-15T06:08:51.540Z,101566.77
2018-05-15T06:11:19.105Z,101568.55
2018-05-15T06:13:46.682Z,101568.22
2018-05-15T06:16:14.379Z,101574.20
2018-05-15T06:18:41.979Z,101572.80
2018-05-15T06:21:09.577Z,101574.61
2018-05-15T06:23:37.760Z,101577.73
2018-05-15T06:26:05.418Z,101578.55
2018-05-15T06:28:33.000Z,101583.66
2018-05-15T06:31:00.594Z,101588.24
2018-05-15T06:33:28.171Z,101589.91
2018-05-15T06:35:56.153Z,101587.25
2018-05-15T06:38:23.722Z,101583.77
2018-05-15T06:40:51.294Z,101591.83
2018-05-15T06:43:18.885Z,101593.41
2018-05-15T06:45:46.472Z,101593.45
2018-05-15T06:48:14.068Z,101587.25
2018-05-15T06:50:41.629Z,101597.15
2018-05-15T06:53:09.312Z,101589.64
2018-05-15T06:55:36.881Z,101591.64
2018-05-15T06:58:04.481Z,101598.19
2018-05-15T07:00:32.438Z,101593.35
2018-05-15T07:03:00.072Z,101601.92
2018-05-15T07:05:27.656Z,101595.92
2018-05-15T07:07:55.251Z,101601.11
2018-05-15T07:10:22.829Z,101603.61
2018-05-15T07:12:50.515Z,101607.48
2018-05-15T07:15:18.316Z,101610.27
2018-05-15T07:17:45.895Z,101601.98
2018-05-15T07:20:13.485Z,101603.34
2018-05-15T07:22:41.060Z,101606.41
2018-05-15T07:25:08.746Z,101613.25
2018-05-15T07:27:36.571Z,101612.86
2018-05-15T07:30:04.418Z,101616.37
2018-05-15T07:32:32.474Z,101617.62
2018-05-15T07:35:00.051Z,101610.35
2018-05-15T07:37:27.726Z,101615.18
2018-05-15T07:39:55.416Z,101615.63
2018-05-15T07:42:22.975Z,101612.95
2018-05-15T07:44:50.538Z,101605.53
2018-05-15T07:47:18.121Z,101607.48
2018-05-15T07:49:45.707Z,101608.13
2018-05-15T07:52:13.299Z,101607.59
2018-05-15T07:54:40.860Z,101608.53
2018-05-15T07:57:08.496Z,101610.73
2018-05-15T07:59:36.079Z,101612.30
2018-05-15T08:02:03.673Z,101614.88
2018-05-15T08:04:31.319Z,101623.44
2018-05-15T08:06:59.119Z,101623.84
2018-05-15T08:09:26.943Z,101623.66
2018-05-15T08:11:54.524Z,101620.16
2018-05-15T08:14:22.452Z,101623.14
2018-05-15T08:16:50.027Z,101617.73
2018-05-15T08:19:17.600Z,101615.58
2018-05-15T08:21:45.216Z,101622.42
2018-05-15T08:24:12.784Z,101621.23
2018-05-15T08:26:40.344Z,101619.15
2018-05-15T08:29:08.423Z,101625.90
2018-05-15T08:31:36.048Z,101626.55
2018-05-15T08:34:03.617Z,101629.76
2018-05-15T08:36:31.445Z,101630.14
2018-05-15T08:38:59.277Z,101634.86
2018-05-15T08:41:27.263Z,101635.38
2018-05-15T08:43:55.149Z,101630.31
2018-05-15T08:46:23.020Z,101628.78
2018-05-15T08:48:50.631Z,101626.23
2018-05-15T08:51:18.291Z,101630.78
2018-05-15T08:53:46.369Z,101631.06
2018-05-15T08:56:13.973Z,101626.00
2018-05-15T08:58:41.660Z,101631.36
2018-05-15T09:01:09.267Z,101627.90
2018-05-15T09:03:37.161Z,101627.08
2018-05-15T09:06:05.109Z,101626.24
2018-05-15T09:08:32.683Z,101635.08
2018-05-15T09:11:00.327Z,101621.66
2018-05-15T09:13:28.285Z,101626.87
2018-05-15T09:15:56.102Z,101626.72
2018-05-15T09:18:23.825Z,101627.20
2018-05-15T09:20:51.424Z,101625.28
2018-05-15T09:23:19.000Z,101620.36
2018-05-15T09:25:46.648Z,101624.73
2018-05-15T09:28:14.240Z,101627.98
2018-05-15T09:30:41.848Z,101618.36
2018-05-15T09:33:09.460Z,101620.82
2018-05-15T09:35:37.058Z,101619.84
2018-05-15T09:38:04.696Z,101622.23
2018-05-15T09:40:32.304Z,101618.62
2018-05-15T09:43:00.171Z,101620.62
2018-05-15T09:45:27.907Z,101613.48
2018-05-15T09:47:55.479Z,101610.09
2018-05-15T09:50:23.294Z,101609.53
2018-05-15T09:52:50.971Z,101606.77
2018-05-15T09:55:18.566Z,101609.55
2018-05-15T09:57:46.474Z,101604.36
2018-05-15T10:00:14.084Z,101603.94
2018-05-15T10:02:41.673Z,101611.49
2018-05-15T10:05:09.254Z,101598.31
2018-05-15T10:07:36.879Z,101605.27
2018-05-15T10:10:04.490Z,101602.52
2018-05-15T10:12:32.388Z,101607.95
2018-05-15T10:14:59.985Z,101606.93
2018-05-15T10:17:27.660Z,101602.14
2018-05-15T10:19:55.520Z,101602.17
2018-05-15T10:22:23.103Z,101598.34
2018-05-15T10:24:51.897Z,101593.92
2018-05-15T10:27:19.452Z,101598.63
2018-05-15T10:29:47.467Z,101594.81
2018-05-15T10:32:15.144Z,101590.80
2018-05-15T10:34:42.716Z,101594.71
2018-05-15T10:37:10.843Z,101580.97
2018-05-15T10:39:38.414Z,101583.09
2018-05-15T10:42:05.987Z,101584.76
2018-05-15T10:44:33.767Z,101579.36
2018-05-15T10:47:01.407Z,101586.17
2018-05-15T10:49:28.998Z,101581.78
2018-05-15T10:51:56.675Z,101576.36
2018-05-15T10:54:24.275Z,101574.59
2018-05-15T10:56:52.125Z,101582.34
2018-05-15T10:59:19.681Z,101575.44
2018-05-15T11:01:47.504Z,101576.92
2018-05-15T11:04:15.293Z,101577.34
2018-05-15T11:06:42.865Z,101568.02
2018-05-15T11:09:10.656Z,101571.33
2018-05-15T11:11:38.250Z,101569.30
2018-05-15T11:14:05.969Z,101566.45
2018-05-15T11:16:33.589Z,101568.58
2018-05-15T11:22:19.837Z,101563.60
2018-05-15T11:24:53.490Z,101567.23
2018-05-15T11:27:21.071Z,101572.20
2018-05-15T11:29:48.638Z,101564.32
2018-05-15T11:32:16.654Z,101560.33
2018-05-15T11:34:44.212Z,101557.77
2018-05-15T11:37:12.037Z,101556.22
2018-05-15T11:39:39.624Z,101561.17
2018-05-15T11:42:07.426Z,101555.67
2018-05-15T11:44:35.041Z,101558.70
2018-05-15T11:47:02.884Z,101560.62
2018-05-15T11:49:31.512Z,101558.87
2018-05-15T11:51:59.497Z,101549.20
2018-05-15T11:54:26.692Z,101548.75
2018-05-15T11:56:54.823Z,101551.36
2018-05-15T11:59:22.376Z,101541.89
2018-05-15T12:01:49.952Z,101546.72
2018-05-15T12:04:17.895Z,101543.89
2018-05-15T12:06:45.527Z,101533.94
2018-05-15T12:09:13.195Z,101543.41
2018-05-15T12:11:40.766Z,101543.13
2018-05-15T12:14:08.711Z,101537.64
2018-05-15T12:16:36.574Z,101537.33
2018-05-15T12:19:04.172Z,101529.80
2018-05-15T12:21:31.800Z,101530.33
2018-05-15T12:23:59.513Z,101530.37
2018-05-15T12:29:22.500Z,101527.50
2018-05-15T12:31:50.164Z,101521.81
2018-05-15T12:34:17.759Z,101520.39
2018-05-15T12:36:45.412Z,101517.78
2018-05-15T12:39:13.096Z,101518.97
2018-05-15T12:41:40.941Z,101515.98
2018-05-15T12:44:08.815Z,101515.44
2018-05-15T12:46:36.495Z,101525.13
2018-05-15T12:49:04.268Z,101515.45
2018-05-15T12:51:31.883Z,101520.80
2018-05-15T12:53:59.530Z,101515.77
2018-05-15T12:56:27.090Z,101518.91
2018-05-15T12:58:54.694Z,101506.27
2018-05-15T13:01:22.355Z,101513.66
2018-05-15T13:03:49.975Z,101511.05
2018-05-15T13:06:17.564Z,101511.80
2018-05-15T13:08:45.255Z,101511.27
2018-05-15T13:11:12.819Z,101503.27
2018-05-15T13:13:40.409Z,101508.14
2018-05-15T13:16:08.292Z,101508.45
2018-05-15T13:18:36.944Z,101505.56
2018-05-15T13:21:04.504Z,101502.75
2018-05-15T13:23:32.114Z,101495.16
2018-05-15T13:25:59.828Z,101498.16
2018-05-15T13:28:27.656Z,101488.23
2018-05-15T13:30:55.266Z,101484.41
2018-05-15T13:33:22.861Z,101483.11
2018-05-15T13:35:50.459Z,101482.73
2018-05-15T13:38:18.464Z,101484.03
2018-05-15T13:40:46.058Z,101482.74
2018-05-15T13:43:13.648Z,101475.55
2018-05-15T13:45:41.330Z,101473.80
2018-05-15T13:48:08.995Z,101467.39
2018-05-15T13:50:36.657Z,101465.44
2018-05-15T13:53:04.203Z,101465.35
2018-05-15T13:55:32.309Z,101457.22
2018-05-15T13:57:59.888Z,101454.58
2018-05-15T14:00:27.458Z,101452.50
2018-05-15T14:02:55.292Z,101452.35
2018-05-15T14:05:22.901Z,101456.42
2018-05-15T14:07:50.482Z,101449.00
2018-05-15T14:10:18.159Z,101453.61
2018-05-15T14:12:45.824Z,101447.73
2018-05-15T14:15:13.446Z,101441.86
2018-05-15T14:17:41.322Z,101439.62
2018-05-15T14:20:08.916Z,101440.59
2018-05-15T14:22:36.529Z,101440.30
2018-05-15T14:25:04.175Z,101432.97
2018-05-15T14:27:32.200Z,101439.71
2018-05-15T14:29:59.845Z,101436.53
2018-05-15T14:32:27.413Z,101435.36
2018-05-15T14:34:55.148Z,101433.17
2018-05-15T14:37:22.778Z,101434.27
2018-05-15T14:39:50.856Z,101433.27
2018-05-15T14:42:30.350Z,101427.27
2018-05-15T14:44:57.974Z,101429.23
2018-05-15T14:47:25.543Z,101421.94
2018-05-15T14:49:53.136Z,101428.20
2018-05-15T14:52:22.002Z,101421.70
2018-05-15T14:54:49.699Z,101416.31
2018-05-15T14:57:17.420Z,101420.20
2018-05-15T14:59:45.032Z,101414.27
2018-05-15T15:02:12.625Z,101414.42
2018-05-15T15:04:40.225Z,101416.16
2018-05-15T15:07:07.808Z,101409.77
2018-05-15T15:09:35.421Z,101412.97
2018-05-15T15:12:03.046Z,101412.03
2018-05-15T15:14:30.656Z,101406.37
2018-05-15T15:16:58.286Z,101405.65
2018-05-15T15:19:26.196Z,101401.62
2018-05-15T15:21:53.769Z,101396.51
2018-05-15T15:24:21.374Z,101396.50
2018-05-15T15:26:48.984Z,101398.56
2018-05-15T15:29:16.963Z,101392.77
2018-05-15T15:31:44.477Z,101392.34
2018-05-15T15:34:12.088Z,101389.30
2018-05-15T15:36:40.032Z,101386.05
2018-05-15T15:39:07.841Z,101386.92
2018-05-15T15:41:35.440Z,101383.72
2018-05-15T15:44:03.133Z,101382.41
2018-05-15T15:46:30.752Z,101379.58
2018-05-15T15:48:58.921Z,101371.04
2018-05-15T15:51:26.510Z,101366.81
2018-05-15T15:53:54.085Z,101362.88
2018-05-15T15:56:21.696Z,101362.91
2018-05-15T15:58:49.324Z,101366.16
2018-05-15T16:01:16.902Z,101366.73
2018-05-15T16:03:45.604Z,101356.83
2018-05-15T16:06:13.194Z,101366.98
2018-05-15T16:08:40.997Z,101358.42
2018-05-15T16:11:08.638Z,101351.41
2018-05-15T16:13:36.258Z,101352.27
2018-05-15T16:16:03.849Z,101355.48
2018-05-15T16:18:31.427Z,101354.63
2018-05-15T16:20:59.018Z,101359.37
2018-05-15T16:23:26.594Z,101353.41
2018-05-15T16:25:54.665Z,101357.55
2018-05-15T16:28:22.570Z,101351.38
2018-05-15T16:30:50.197Z,101352.19
2018-05-15T16:33:17.782Z,101362.78
2018-05-15T16:35:45.425Z,101355.12
2018-05-15T16:38:13.139Z,101363.24
2018-05-15T16:40:41.027Z,101363.84
2018-05-15T16:43:08.629Z,101353.75
2018-05-15T16:45:36.310Z,101357.17
2018-05-15T16:48:03.972Z,101357.62
2018-05-15T16:50:31.570Z,101357.99
2018-05-15T16:52:59.131Z,101361.59
2018-05-15T16:55:26.835Z,101359.06
2018-05-15T16:57:54.393Z,101360.86
2018-05-15T17:00:21.950Z,101359.27
2018-05-15T17:02:49.893Z,101357.27
2018-05-15T17:05:17.473Z,101355.09
2018-05-15T17:07:45.134Z,101357.88
2018-05-15T17:10:12.740Z,101356.13
2018-05-15T17:12:40.568Z,101355.14
2018-05-15T17:15:08.203Z,101345.86
2018-05-15T17:17:36.035Z,101348.84
2018-05-15T17:20:03.632Z,101349.64
2018-05-15T17:22:31.198Z,101345.07
2018-05-15T17:24:59.034Z,101343.70
2018-05-15T17:27:26.709Z,101351.63
2018-05-15T17:29:54.400Z,101344.06
2018-05-15T17:32:21.980Z,101351.23
2018-05-15T17:34:49.773Z,101352.22
2018-05-15T17:37:17.353Z,101345.08
2018-05-15T17:39:44.907Z,101350.22
2018-05-15T17:42:12.499Z,101340.12
2018-05-15T17:44:40.162Z,101345.86
2018-05-15T17:47:07.739Z,101350.98
2018-05-15T17:49:35.341Z,101358.30
2018-05-15T17:52:03.131Z,101355.51
2018-05-15T17:54:31.073Z,101353.73
2018-05-15T17:56:58.887Z,101353.72
2018-05-15T17:59:26.517Z,101355.69
2018-05-15T18:01:54.057Z,101357.88
2018-05-15T18:04:22.008Z,101361.02
2018-05-15T18:06:49.838Z,101363.18
2018-05-15T18:09:17.436Z,101360.41
2018-05-15T18:11:45.072Z,101361.41
2018-05-15T18:14:12.700Z,101364.59
2018-05-15T18:16:40.282Z,101364.55
2018-05-15T18:19:07.997Z,101363.34
2018-05-15T18:21:35.560Z,101370.98
2018-05-15T18:24:03.208Z,101364.72
2018-05-15T18:26:30.800Z,101365.48
2018-05-15T18:28:58.370Z,101359.81
2018-05-15T18:31:25.963Z,101362.87
2018-05-15T18:33:53.841Z,101367.94
2018-05-15T18:36:21.720Z,101365.70
2018-05-15T18:38:49.291Z,101368.66
2018-05-15T18:41:16.886Z,101366.89
2018-05-15T18:43:44.448Z,101373.28
2018-05-15T18:46:12.043Z,101373.75
2018-05-15T18:48:39.638Z,101374.45
2018-05-15T18:51:07.273Z,101380.08
2018-05-15T18:53:35.136Z,101377.06
2018-05-15T18:56:02.798Z,101373.36
2018-05-15T18:58:30.590Z,101372.25
2018-05-15T19:00:58.535Z,101378.71
2018-05-15T19:03:26.109Z,101386.01
2018-05-15T19:05:53.701Z,101380.66
2018-05-15T19:08:21.297Z,101379.02
2018-05-15T19:10:48.870Z,101380.03
2018-05-15T19:13:16.496Z,101379.08
2018-05-15T19:15:44.115Z,101388.39
2018-05-15T19:18:11.670Z,101385.05
2018-05-15T19:20:39.248Z,101392.12
2018-05-15T19:23:07.360Z,101399.31
2018-05-15T19:25:35.181Z,101394.63
2018-05-15T19:28:02.752Z,101398.86
2018-05-15T19:30:30.347Z,101401.52
2018-05-15T19:33:04.334Z,101404.65
2018-05-15T19:35:37.747Z,101407.30
2018-05-15T19:38:05.388Z,101402.05
2018-05-15T19:40:32.971Z,101411.52
2018-05-15T19:43:00.529Z,101403.55
2018-05-15T19:45:28.120Z,101410.97
2018-05-15T19:47:55.708Z,101409.80
2018-05-15T19:50:23.280Z,101415.50
2018-05-15T19:52:51.104Z,101414.78
2018-05-15T19:55:18.685Z,101414.80
2018-05-15T19:57:46.489Z,101418.55
2018-05-15T20:00:14.103Z,101412.79
2018-05-15T20:02:41.681Z,101409.48
2018-05-15T20:05:09.241Z,101411.43
2018-05-15T20:07:37.140Z,101412.72
2018-05-15T20:10:04.759Z,101416.67
2018-05-15T20:12:32.362Z,101416.30
2018-05-15T20:14:59.928Z,101418.79
2018-05-15T20:17:27.533Z,101415.66
2018-05-15T20:19:55.103Z,101418.23
2018-05-15T20:22:22.715Z,101419.02
2018-05-15T20:24:50.373Z,101425.48
2018-05-15T20:27:17.934Z,101423.23
2018-05-15T20:29:45.486Z,101426.48
2018-05-15T20:32:13.078Z,101426.39
2018-05-15T20:34:40.783Z,101430.16
2018-05-15T20:37:08.437Z,101429.59
2018-05-15T20:39:36.007Z,101432.38
2018-05-15T20:42:03.673Z,101429.56
2018-05-15T20:44:31.382Z,101430.80
2018-05-15T20:46:58.960Z,101431.78
2018-05-15T20:49:26.531Z,101431.39
2018-05-15T20:51:54.379Z,101428.00
2018-05-15T20:54:21.939Z,101433.72
2018-05-15T20:56:49.518Z,101430.88
2018-05-15T20:59:17.529Z,101438.28
2018-05-15T21:01:45.092Z,101431.62
2018-05-15T21:04:12.668Z,101431.65
2018-05-15T21:06:40.598Z,101431.37
2018-05-15T21:09:08.203Z,101427.23
2018-05-15T21:11:36.068Z,101433.76
2018-05-15T21:14:03.700Z,101431.36
2018-05-15T21:16:31.423Z,101428.51
2018-05-15T21:18:59.029Z,101426.23
2018-05-15T21:21:26.634Z,101429.19
2018-05-15T21:23:54.316Z,101421.41
2018-05-15T21:26:21.885Z,101427.85
2018-05-15T21:28:49.616Z,101428.47
2018-05-15T21:31:17.253Z,101424.99
2018-05-15T21:33:44.872Z,101422.72
2018-05-15T21:36:12.530Z,101425.23
2018-05-15T21:38:40.164Z,101424.93
2018-05-15T21:41:07.764Z,101427.27
2018-05-15T21:43:35.603Z,101426.61
2018-05-15T21:46:03.250Z,101425.30
2018-05-15T21:48:30.827Z,101429.48
2018-05-15T21:50:58.432Z,101432.21
2018-05-15T21:53:26.175Z,101429.78
2018-05-15T21:55:53.947Z,101425.75
2018-05-15T21:58:21.816Z,101418.45
2018-05-15T22:00:49.817Z,101415.70
2018-05-15T22:03:17.539Z,101420.00
2018-05-15T22:05:48.144Z,101422.92
2018-05-15T22:08:15.746Z,101422.25
2018-05-15T22:10:43.542Z,101420.94
2018-05-15T22:13:22.963Z,101419.36
2018-05-15T22:16:02.838Z,101422.05
2018-05-15T22:18:42.248Z,101422.69
2018-05-15T22:21:21.583Z,101427.20
2018-05-15T22:23:48.895Z,101424.25
2018-05-15T22:26:16.558Z,101420.25
2018-05-15T22:28:44.411Z,101416.59
2018-05-15T22:31:12.063Z,101421.44
2018-05-15T22:33:39.848Z,101420.58
2018-05-15T22:36:07.427Z,101413.95
2018-05-15T22:38:35.569Z,101416.92
2018-05-15T22:41:03.236Z,101410.88
2018-05-15T22:43:30.826Z,101416.13
2018-05-15T22:45:58.535Z,101419.83
2018-05-15T22:48:26.175Z,101420.83
2018-05-15T22:50:53.863Z,101423.64
2018-05-15T22:53:21.569Z,101425.97
2018-05-15T22:55:49.187Z,101417.91
2018-05-15T22:58:17.157Z,101420.88
2018-05-15T23:00:44.844Z,101406.86
2018-05-15T23:03:12.476Z,101408.52
2018-05-15T23:05:40.606Z,101404.64
2018-05-15T23:08:08.221Z,101407.22
2018-05-15T23:10:35.897Z,101407.38
2018-05-15T23:13:03.793Z,101408.62
2018-05-15T23:15:31.467Z,101404.23
2018-05-15T23:17:59.077Z,101404.80
2018-05-15T23:20:27.092Z,101404.40
2018-05-15T23:22:54.651Z,101393.64
2018-05-15T23:25:22.560Z,101390.05
2018-05-15T23:27:50.217Z,101396.50
2018-05-15T23:30:17.867Z,101394.40
2018-05-15T23:32:45.432Z,101398.06
2018-05-15T23:35:13.289Z,101395.14
2018-05-15T23:37:41.315Z,101400.05
2018-05-15T23:40:09.028Z,101393.70
2018-05-15T23:42:36.671Z,101391.08
2018-05-15T23:45:04.314Z,101394.58
2018-05-15T23:47:32.265Z,101393.27
2018-05-15T23:50:00.328Z,101390.96
2018-05-15T23:52:27.919Z,101390.34
2018-05-15T23:54:55.490Z,101393.37
2018-05-15T23:57:23.119Z,101384.20
2018-05-15T23:59:50.703Z,101384.25
